sensor_id;sensor_type;location;lat;lon;timestamp;pressure;altitude;pressure_sealevel;temperature;humidity
58761;BME280;44529;47.464;19.014;2023-02-16T00:00:16;101630.44;;;-0.05;95.72
58761;BME280;44529;47.464;19.014;2023-02-16T00:03:21;101632.88;;;-0.03;95.44
58761;BME280;44529;47.464;19.014;2023-02-16T00:06:24;101628.41;;;-0.22;96.50
58761;BME280;44529;47.464;19.014;2023-02-16T00:09:27;101625.31;;;-0.26;97.39
58761;BME280;44529;47.464;19.014;2023-02-16T00:12:29;101625.53;;;-0.14;96.67
58761;BME280;44529;47.464;19.014;2023-02-16T00:15:50;101629.63;;;-0.18;95.92
58761;BME280;44529;47.464;19.014;2023-02-16T00:18:53;101629.00;;;-0.20;95.89
58761;BME280;44529;47.464;19.014;2023-02-16T00:21:57;101625.16;;;-0.24;95.80
58761;BME280;44529;47.464;19.014;2023-02-16T00:25:00;101619.84;;;-0.31;96.40
58761;BME280;44529;47.464;19.014;2023-02-16T00:28:04;101627.16;;;-0.27;96.76
58761;BME280;44529;47.464;19.014;2023-02-16T00:31:20;101619.41;;;-0.35;97.74
58761;BME280;44529;47.464;19.014;2023-02-16T00:34:31;101625.16;;;-0.44;99.01
58761;BME280;44529;47.464;19.014;2023-02-16T00:37:33;101622.28;;;-0.36;98.83
58761;BME280;44529;47.464;19.014;2023-02-16T00:40:36;101608.19;;;-0.50;99.42
58761;BME280;44529;47.464;19.014;2023-02-16T00:43:40;101609.41;;;-0.46;99.56
58761;BME280;44529;47.464;19.014;2023-02-16T00:46:43;101607.97;;;-0.48;99.97
58761;BME280;44529;47.464;19.014;2023-02-16T00:49:51;101606.13;;;-0.48;100.00
58761;BME280;44529;47.464;19.014;2023-02-16T00:52:54;101610.41;;;-0.47;100.00
58761;BME280;44529;47.464;19.014;2023-02-16T00:55:59;101605.91;;;-0.40;100.00
58761;BME280;44529;47.464;19.014;2023-02-16T00:59:04;101600.41;;;-0.32;98.95
58761;BME280;44529;47.464;19.014;2023-02-16T01:02:07;101599.37;;;-0.31;98.68
58761;BME280;44529;47.464;19.014;2023-02-16T01:05:09;101593.44;;;-0.39;97.90
58761;BME280;44529;47.464;19.014;2023-02-16T01:08:14;101591.81;;;-0.47;97.39
58761;BME280;44529;47.464;19.014;2023-02-16T01:11:38;101585.69;;;-0.47;97.49
58761;BME280;44529;47.464;19.014;2023-02-16T01:14:40;101590.19;;;-0.48;97.37
58761;BME280;44529;47.464;19.014;2023-02-16T01:17:43;101592.03;;;-0.55;97.66
58761;BME280;44529;47.464;19.014;2023-02-16T01:20:46;101593.28;;;-0.64;97.50
58761;BME280;44529;47.464;19.014;2023-02-16T01:23:48;101586.94;;;-0.70;97.01
58761;BME280;44529;47.464;19.014;2023-02-16T01:26:53;101583.84;;;-0.80;96.74
58761;BME280;44529;47.464;19.014;2023-02-16T01:29:55;101587.91;;;-0.84;97.27
58761;BME280;44529;47.464;19.014;2023-02-16T01:32:57;101579.37;;;-0.73;97.48
58761;BME280;44529;47.464;19.014;2023-02-16T01:36:00;101579.56;;;-0.74;97.25
58761;BME280;44529;47.464;19.014;2023-02-16T01:39:03;101575.28;;;-0.95;98.20
58761;BME280;44529;47.464;19.014;2023-02-16T01:42:50;101577.50;;;-0.86;97.52
58761;BME280;44529;47.464;19.014;2023-02-16T01:45:35;101576.09;;;-0.95;97.69
58761;BME280;44529;47.464;19.014;2023-02-16T01:48:39;101571.97;;;-0.97;97.48
58761;BME280;44529;47.464;19.014;2023-02-16T01:55:21;101565.03;;;-0.92;97.08
58761;BME280;44529;47.464;19.014;2023-02-16T02:08:29;101561.78;;;-1.00;97.85
58761;BME280;44529;47.464;19.014;2023-02-16T02:14:43;101538.69;;;-1.13;98.48
58761;BME280;44529;47.464;19.014;2023-02-16T02:17:47;101537.28;;;-1.09;97.32
58761;BME280;44529;47.464;19.014;2023-02-16T02:25:08;101533.59;;;-1.15;98.03
58761;BME280;44529;47.464;19.014;2023-02-16T02:28:25;101534.59;;;-1.22;99.76
58761;BME280;44529;47.464;19.014;2023-02-16T02:31:46;101526.44;;;-1.27;100.00
58761;BME280;44529;47.464;19.014;2023-02-16T02:38:23;101535.41;;;-1.28;99.92
58761;BME280;44529;47.464;19.014;2023-02-16T02:41:52;101533.94;;;-1.38;100.00
58761;BME280;44529;47.464;19.014;2023-02-16T02:45:15;101530.09;;;-1.35;100.00
58761;BME280;44529;47.464;19.014;2023-02-16T02:48:21;101535.22;;;-1.20;100.00
58761;BME280;44529;47.464;19.014;2023-02-16T02:51:23;101536.88;;;-1.06;100.00
58761;BME280;44529;47.464;19.014;2023-02-16T02:54:37;101534.22;;;-0.99;100.00
58761;BME280;44529;47.464;19.014;2023-02-16T02:58:00;101526.25;;;-0.99;99.89
58761;BME280;44529;47.464;19.014;2023-02-16T03:01:22;101529.31;;;-1.09;100.00
58761;BME280;44529;47.464;19.014;2023-02-16T03:04:27;101525.63;;;-1.15;99.18
58761;BME280;44529;47.464;19.014;2023-02-16T03:07:34;101523.78;;;-1.27;99.65
58761;BME280;44529;47.464;19.014;2023-02-16T03:10:57;101527.63;;;-1.23;99.26
58761;BME280;44529;47.464;19.014;2023-02-16T03:14:46;101531.31;;;-1.18;98.82
58761;BME280;44529;47.464;19.014;2023-02-16T03:17:50;101535.22;;;-1.20;97.82
58761;BME280;44529;47.464;19.014;2023-02-16T03:21:15;101529.25;;;-1.29;97.74
58761;BME280;44529;47.464;19.014;2023-02-16T03:24:36;101525.19;;;-1.25;97.36
58761;BME280;44529;47.464;19.014;2023-02-16T03:27:59;101519.88;;;-1.31;97.51
58761;BME280;44529;47.464;19.014;2023-02-16T03:31:28;101518.22;;;-1.46;99.04
58761;BME280;44529;47.464;19.014;2023-02-16T03:34:32;101519.66;;;-1.37;98.07
58761;BME280;44529;47.464;19.014;2023-02-16T03:37:37;101515.97;;;-1.36;97.84
58761;BME280;44529;47.464;19.014;2023-02-16T03:40:41;101511.87;;;-1.58;98.38
58761;BME280;44529;47.464;19.014;2023-02-16T03:43:45;101515.91;;;-1.62;98.74
58761;BME280;44529;47.464;19.014;2023-02-16T03:46:49;101517.97;;;-1.64;99.20
58761;BME280;44529;47.464;19.014;2023-02-16T03:49:51;101515.31;;;-1.64;98.85
58761;BME280;44529;47.464;19.014;2023-02-16T03:52:54;101514.75;;;-1.53;98.30
58761;BME280;44529;47.464;19.014;2023-02-16T03:56:07;101509.44;;;-1.53;98.22
58761;BME280;44529;47.464;19.014;2023-02-16T03:59:10;101514.75;;;-1.46;99.64
58761;BME280;44529;47.464;19.014;2023-02-16T04:02:12;101507.41;;;-1.38;100.00
58761;BME280;44529;47.464;19.014;2023-02-16T04:05:15;101515.37;;;-1.38;100.00
58761;BME280;44529;47.464;19.014;2023-02-16T04:08:17;101510.28;;;-1.39;100.00
58761;BME280;44529;47.464;19.014;2023-02-16T04:11:19;101513.53;;;-1.44;100.00
58761;BME280;44529;47.464;19.014;2023-02-16T04:14:40;101509.06;;;-1.30;100.00
58761;BME280;44529;47.464;19.014;2023-02-16T04:17:45;101509.88;;;-1.36;99.53
58761;BME280;44529;47.464;19.014;2023-02-16T04:20:47;101507.84;;;-1.41;98.93
58761;BME280;44529;47.464;19.014;2023-02-16T04:23:50;101514.56;;;-1.38;98.02
58761;BME280;44529;47.464;19.014;2023-02-16T04:26:52;101498.03;;;-1.40;97.61
58761;BME280;44529;47.464;19.014;2023-02-16T04:29:54;101495.16;;;-1.45;98.31
58761;BME280;44529;47.464;19.014;2023-02-16T04:32:57;101502.09;;;-1.51;99.66
58761;BME280;44529;47.464;19.014;2023-02-16T04:36:00;101511.06;;;-1.52;99.10
58761;BME280;44529;47.464;19.014;2023-02-16T04:39:03;101513.09;;;-1.60;99.65
58761;BME280;44529;47.464;19.014;2023-02-16T04:42:06;101517.16;;;-1.58;98.88
58761;BME280;44529;47.464;19.014;2023-02-16T04:45:09;101520.41;;;-1.62;98.63
58761;BME280;44529;47.464;19.014;2023-02-16T04:48:11;101519.19;;;-1.67;98.00
58761;BME280;44529;47.464;19.014;2023-02-16T04:51:14;101518.75;;;-1.70;96.87
58761;BME280;44529;47.464;19.014;2023-02-16T04:54:16;101514.03;;;-1.75;96.62
58761;BME280;44529;47.464;19.014;2023-02-16T04:57:18;101515.06;;;-1.76;96.62
58761;BME280;44529;47.464;19.014;2023-02-16T05:00:22;101518.09;;;-1.85;97.44
58761;BME280;44529;47.464;19.014;2023-02-16T05:03:25;101526.66;;;-1.83;97.19
58761;BME280;44529;47.464;19.014;2023-02-16T05:06:27;101519.09;;;-1.93;97.22
58761;BME280;44529;47.464;19.014;2023-02-16T05:09:29;101518.47;;;-1.88;97.81
58761;BME280;44529;47.464;19.014;2023-02-16T05:12:32;101503.78;;;-1.98;97.85
58761;BME280;44529;47.464;19.014;2023-02-16T05:15:52;101505.19;;;-1.95;97.89
58761;BME280;44529;47.464;19.014;2023-02-16T05:18:55;101506.84;;;-1.94;99.02
58761;BME280;44529;47.464;19.014;2023-02-16T05:21:59;101513.62;;;-1.85;99.36
58761;BME280;44529;47.464;19.014;2023-02-16T05:25:02;101511.53;;;-1.89;99.76
58761;BME280;44529;47.464;19.014;2023-02-16T05:28:04;101507.09;;;-1.82;99.18
58761;BME280;44529;47.464;19.014;2023-02-16T05:31:07;101508.91;;;-1.89;98.90
58761;BME280;44529;47.464;19.014;2023-02-16T05:34:09;101503.22;;;-1.86;98.32
58761;BME280;44529;47.464;19.014;2023-02-16T05:37:13;101503.00;;;-1.92;97.46
58761;BME280;44529;47.464;19.014;2023-02-16T05:40:16;101499.09;;;-1.96;97.20
58761;BME280;44529;47.464;19.014;2023-02-16T05:43:18;101500.31;;;-1.98;97.21
58761;BME280;44529;47.464;19.014;2023-02-16T05:46:22;101501.50;;;-2.01;97.26
58761;BME280;44529;47.464;19.014;2023-02-16T05:49:25;101508.03;;;-2.03;97.24
58761;BME280;44529;47.464;19.014;2023-02-16T05:52:28;101504.34;;;-2.02;97.37
58761;BME280;44529;47.464;19.014;2023-02-16T05:55:30;101507.22;;;-2.04;98.02
58761;BME280;44529;47.464;19.014;2023-02-16T05:58:32;101505.78;;;-2.00;98.03
58761;BME280;44529;47.464;19.014;2023-02-16T06:01:35;101504.31;;;-2.09;98.70
58761;BME280;44529;47.464;19.014;2023-02-16T06:04:37;101503.53;;;-2.03;98.39
58761;BME280;44529;47.464;19.014;2023-02-16T06:07:40;101498.66;;;-2.06;97.96
58761;BME280;44529;47.464;19.014;2023-02-16T06:10:42;101494.75;;;-2.10;97.96
58761;BME280;44529;47.464;19.014;2023-02-16T06:13:44;101500.28;;;-2.05;97.25
58761;BME280;44529;47.464;19.014;2023-02-16T06:16:49;101498.63;;;-2.12;96.66
58761;BME280;44529;47.464;19.014;2023-02-16T06:19:52;101506.50;;;-2.19;97.84
58761;BME280;44529;47.464;19.014;2023-02-16T06:22:55;101497.38;;;-2.16;98.84
58761;BME280;44529;47.464;19.014;2023-02-16T06:25:57;101497.78;;;-2.13;99.48
58761;BME280;44529;47.464;19.014;2023-02-16T06:29:00;101504.87;;;-2.20;99.49
58761;BME280;44529;47.464;19.014;2023-02-16T06:32:02;101508.84;;;-2.03;98.52
58761;BME280;44529;47.464;19.014;2023-02-16T06:35:05;101504.37;;;-1.96;97.86
58761;BME280;44529;47.464;19.014;2023-02-16T06:38:07;101508.50;;;-1.93;97.97
58761;BME280;44529;47.464;19.014;2023-02-16T06:41:10;101506.84;;;-1.87;97.99
58761;BME280;44529;47.464;19.014;2023-02-16T06:44:14;101508.09;;;-1.83;98.81
58761;BME280;44529;47.464;19.014;2023-02-16T06:47:17;101505.91;;;-1.73;98.70
58761;BME280;44529;47.464;19.014;2023-02-16T06:50:19;101503.47;;;-1.61;98.21
58761;BME280;44529;47.464;19.014;2023-02-16T06:53:21;101499.19;;;-1.62;98.30
58761;BME280;44529;47.464;19.014;2023-02-16T06:56:24;101495.72;;;-1.63;98.60
58761;BME280;44529;47.464;19.014;2023-02-16T06:59:26;101493.72;;;-1.61;99.09
58761;BME280;44529;47.464;19.014;2023-02-16T07:02:28;101494.34;;;-1.52;98.85
58761;BME280;44529;47.464;19.014;2023-02-16T07:05:31;101497.00;;;-1.52;98.80
58761;BME280;44529;47.464;19.014;2023-02-16T07:08:33;101493.31;;;-1.51;99.23
58761;BME280;44529;47.464;19.014;2023-02-16T07:11:37;101488.03;;;-1.45;99.32
58761;BME280;44529;47.464;19.014;2023-02-16T07:14:39;101484.78;;;-1.33;98.78
58761;BME280;44529;47.464;19.014;2023-02-16T07:17:45;101491.53;;;-1.24;98.55
58761;BME280;44529;47.464;19.014;2023-02-16T07:20:47;101487.44;;;-1.27;99.08
58761;BME280;44529;47.464;19.014;2023-02-16T07:23:50;101487.47;;;-1.14;98.76
58761;BME280;44529;47.464;19.014;2023-02-16T07:26:52;101485.41;;;-1.05;98.87
58761;BME280;44529;47.464;19.014;2023-02-16T07:29:56;101496.25;;;-0.93;98.73
58761;BME280;44529;47.464;19.014;2023-02-16T07:32:58;101499.69;;;-0.93;98.81
58761;BME280;44529;47.464;19.014;2023-02-16T07:36:01;101499.31;;;-0.83;98.48
58761;BME280;44529;47.464;19.014;2023-02-16T07:39:04;101494.19;;;-0.78;98.23
58761;BME280;44529;47.464;19.014;2023-02-16T07:42:06;101485.38;;;-0.72;98.21
58761;BME280;44529;47.464;19.014;2023-02-16T07:45:09;101481.53;;;-0.69;98.38
58761;BME280;44529;47.464;19.014;2023-02-16T07:48:11;101480.69;;;-0.57;97.32
58761;BME280;44529;47.464;19.014;2023-02-16T07:51:29;101490.66;;;-0.52;96.58
58761;BME280;44529;47.464;19.014;2023-02-16T07:54:32;101483.31;;;-0.43;96.84
58761;BME280;44529;47.464;19.014;2023-02-16T07:57:37;101487.34;;;-0.28;96.61
58761;BME280;44529;47.464;19.014;2023-02-16T08:00:40;101484.66;;;-0.21;96.17
58761;BME280;44529;47.464;19.014;2023-02-16T08:03:42;101485.88;;;-0.10;95.85
58761;BME280;44529;47.464;19.014;2023-02-16T08:06:44;101487.06;;;0.01;95.55
58761;BME280;44529;47.464;19.014;2023-02-16T08:09:50;101495.41;;;0.11;95.38
58761;BME280;44529;47.464;19.014;2023-02-16T08:12:52;101493.34;;;0.19;95.47
58761;BME280;44529;47.464;19.014;2023-02-16T08:15:54;101494.13;;;0.26;95.74
58761;BME280;44529;47.464;19.014;2023-02-16T08:18:58;101495.91;;;0.33;96.07
58761;BME280;44529;47.464;19.014;2023-02-16T08:22:01;101503.03;;;0.45;96.04
58761;BME280;44529;47.464;19.014;2023-02-16T08:25:03;101499.66;;;0.57;96.01
58761;BME280;44529;47.464;19.014;2023-02-16T08:28:08;101489.38;;;0.67;96.00
58761;BME280;44529;47.464;19.014;2023-02-16T08:31:18;101491.34;;;0.78;95.56
58761;BME280;44529;47.464;19.014;2023-02-16T08:34:22;101495.59;;;0.86;95.38
58761;BME280;44529;47.464;19.014;2023-02-16T08:37:25;101499.38;;;0.96;95.16
58761;BME280;44529;47.464;19.014;2023-02-16T08:40:27;101503.19;;;1.07;94.88
58761;BME280;44529;47.464;19.014;2023-02-16T08:43:31;101502.91;;;1.15;94.75
58761;BME280;44529;47.464;19.014;2023-02-16T08:46:35;101495.94;;;1.39;94.20
58761;BME280;44529;47.464;19.014;2023-02-16T08:49:38;101498.25;;;1.54;94.06
58761;BME280;44529;47.464;19.014;2023-02-16T08:52:40;101495.09;;;1.82;93.38
58761;BME280;44529;47.464;19.014;2023-02-16T08:55:50;101495.75;;;2.14;91.54
58761;BME280;44529;47.464;19.014;2023-02-16T08:58:52;101495.22;;;2.54;90.38
58761;BME280;44529;47.464;19.014;2023-02-16T09:01:56;101492.72;;;2.82;88.50
58761;BME280;44529;47.464;19.014;2023-02-16T09:04:59;101493.75;;;3.23;86.89
58761;BME280;44529;47.464;19.014;2023-02-16T09:08:02;101503.47;;;3.64;84.80
58761;BME280;44529;47.464;19.014;2023-02-16T09:11:07;101501.31;;;4.01;83.75
58761;BME280;44529;47.464;19.014;2023-02-16T09:14:09;101492.59;;;4.34;81.35
58761;BME280;44529;47.464;19.014;2023-02-16T09:17:12;101490.81;;;4.69;80.07
58761;BME280;44529;47.464;19.014;2023-02-16T09:20:15;101487.94;;;5.04;78.13
58761;BME280;44529;47.464;19.014;2023-02-16T09:23:18;101488.22;;;5.41;77.60
58761;BME280;44529;47.464;19.014;2023-02-16T09:26:23;101485.06;;;5.66;76.32
58761;BME280;44529;47.464;19.014;2023-02-16T09:29:25;101486.34;;;5.80;75.18
58761;BME280;44529;47.464;19.014;2023-02-16T09:32:29;101487.44;;;6.01;74.15
58761;BME280;44529;47.464;19.014;2023-02-16T09:35:31;101486.25;;;5.92;74.07
58761;BME280;44529;47.464;19.014;2023-02-16T09:38:35;101484.69;;;5.96;74.96
58761;BME280;44529;47.464;19.014;2023-02-16T09:42:02;101485.09;;;5.88;75.26
58761;BME280;44529;47.464;19.014;2023-02-16T09:45:16;101484.84;;;5.89;74.67
58761;BME280;44529;47.464;19.014;2023-02-16T09:48:35;101493.59;;;5.80;74.58
58761;BME280;44529;47.464;19.014;2023-02-16T09:51:39;101490.47;;;5.88;76.01
58761;BME280;44529;47.464;19.014;2023-02-16T09:54:49;101481.53;;;5.82;75.14
58761;BME280;44529;47.464;19.014;2023-02-16T09:58:18;101483.63;;;5.97;75.42
58761;BME280;44529;47.464;19.014;2023-02-16T10:01:42;101474.37;;;5.88;75.47
58761;BME280;44529;47.464;19.014;2023-02-16T10:05:01;101468.03;;;5.77;74.98
58761;BME280;44529;47.464;19.014;2023-02-16T10:08:09;101479.16;;;5.86;75.17
58761;BME280;44529;47.464;19.014;2023-02-16T10:11:37;101476.91;;;5.94;74.96
58761;BME280;44529;47.464;19.014;2023-02-16T10:14:57;101478.00;;;5.98;75.08
58761;BME280;44529;47.464;19.014;2023-02-16T10:18:11;101469.72;;;6.00;74.67
58761;BME280;44529;47.464;19.014;2023-02-16T10:21:23;101472.31;;;6.17;75.48
58761;BME280;44529;47.464;19.014;2023-02-16T10:24:29;101464.44;;;6.32;74.78
58761;BME280;44529;47.464;19.014;2023-02-16T10:27:42;101464.53;;;6.42;74.26
58761;BME280;44529;47.464;19.014;2023-02-16T10:30:56;101465.19;;;6.55;74.14
58761;BME280;44529;47.464;19.014;2023-02-16T10:40:57;101451.69;;;6.82;72.65
58761;BME280;44529;47.464;19.014;2023-02-16T10:44:20;101443.41;;;6.83;73.15
58761;BME280;44529;47.464;19.014;2023-02-16T10:47:34;101443.50;;;6.98;73.26
58761;BME280;44529;47.464;19.014;2023-02-16T10:53:48;101436.78;;;7.38;72.90
58761;BME280;44529;47.464;19.014;2023-02-16T10:56:54;101431.69;;;7.42;72.43
58761;BME280;44529;47.464;19.014;2023-02-16T11:00:04;101426.34;;;7.52;72.75
58761;BME280;44529;47.464;19.014;2023-02-16T11:03:11;101426.34;;;7.52;70.55
58761;BME280;44529;47.464;19.014;2023-02-16T11:06:16;101424.00;;;7.60;70.12
58761;BME280;44529;47.464;19.014;2023-02-16T11:09:26;101418.59;;;7.60;70.03
58761;BME280;44529;47.464;19.014;2023-02-16T11:12:30;101417.72;;;7.50;70.36
58761;BME280;44529;47.464;19.014;2023-02-16T11:15:36;101411.91;;;7.68;70.34
58761;BME280;44529;47.464;19.014;2023-02-16T11:18:42;101416.25;;;7.79;69.49
58761;BME280;44529;47.464;19.014;2023-02-16T11:21:51;101417.03;;;7.75;69.50
58761;BME280;44529;47.464;19.014;2023-02-16T11:25:17;101410.31;;;7.77;69.44
58761;BME280;44529;47.464;19.014;2023-02-16T11:28:46;101399.84;;;7.86;69.58
58761;BME280;44529;47.464;19.014;2023-02-16T11:31:49;101392.56;;;7.92;69.88
58761;BME280;44529;47.464;19.014;2023-02-16T11:34:52;101385.34;;;8.02;69.18
58761;BME280;44529;47.464;19.014;2023-02-16T11:37:54;101377.84;;;8.20;68.71
58761;BME280;44529;47.464;19.014;2023-02-16T11:40:58;101382.66;;;8.02;68.76
58761;BME280;44529;47.464;19.014;2023-02-16T11:44:02;101375.87;;;7.84;69.67
58761;BME280;44529;47.464;19.014;2023-02-16T11:50:34;101380.22;;;8.11;70.06
58761;BME280;44529;47.464;19.014;2023-02-16T11:53:41;101371.09;;;8.07;69.81
58761;BME280;44529;47.464;19.014;2023-02-16T11:57:00;101367.34;;;8.18;70.10
58761;BME280;44529;47.464;19.014;2023-02-16T12:00:16;101361.16;;;8.53;69.00
58761;BME280;44529;47.464;19.014;2023-02-16T12:06:46;101346.81;;;8.93;67.36
58761;BME280;44529;47.464;19.014;2023-02-16T12:10:28;101340.03;;;9.11;67.16
58761;BME280;44529;47.464;19.014;2023-02-16T12:23:37;101321.22;;;8.76;68.51
58761;BME280;44529;47.464;19.014;2023-02-16T12:26:50;101311.00;;;8.78;68.66
58761;BME280;44529;47.464;19.014;2023-02-16T12:29:59;101302.34;;;8.96;67.82
58761;BME280;44529;47.464;19.014;2023-02-16T12:46:26;101290.69;;;9.01;67.63
58761;BME280;44529;47.464;19.014;2023-02-16T12:53:01;101286.84;;;9.22;67.43
58761;BME280;44529;47.464;19.014;2023-02-16T12:56:10;101274.97;;;9.28;67.45
58761;BME280;44529;47.464;19.014;2023-02-16T12:59:22;101270.41;;;9.13;66.98
58761;BME280;44529;47.464;19.014;2023-02-16T13:02:38;101262.81;;;9.20;66.95
58761;BME280;44529;47.464;19.014;2023-02-16T13:05:48;101252.59;;;9.22;66.90
58761;BME280;44529;47.464;19.014;2023-02-16T13:12:27;101246.75;;;9.55;65.93
58761;BME280;44529;47.464;19.014;2023-02-16T13:15:36;101248.97;;;9.42;65.57
58761;BME280;44529;47.464;19.014;2023-02-16T13:18:41;101238.19;;;9.37;65.50
58761;BME280;44529;47.464;19.014;2023-02-16T13:28:12;101235.09;;;9.98;63.15
58761;BME280;44529;47.464;19.014;2023-02-16T13:31:44;101230.56;;;10.23;62.37
58761;BME280;44529;47.464;19.014;2023-02-16T13:42:04;101216.75;;;10.77;58.43
58761;BME280;44529;47.464;19.014;2023-02-16T13:45:20;101222.19;;;10.48;59.13
58761;BME280;44529;47.464;19.014;2023-02-16T13:48:37;101220.47;;;10.57;59.12
58761;BME280;44529;47.464;19.014;2023-02-16T13:51:44;101223.91;;;10.39;59.56
58761;BME280;44529;47.464;19.014;2023-02-16T13:54:48;101223.25;;;10.23;60.00
58761;BME280;44529;47.464;19.014;2023-02-16T14:01:37;101222.53;;;10.42;59.71
58761;BME280;44529;47.464;19.014;2023-02-16T14:11:13;101216.63;;;10.40;60.56
58761;BME280;44529;47.464;19.014;2023-02-16T14:17:35;101217.38;;;10.45;60.83
58761;BME280;44529;47.464;19.014;2023-02-16T14:20:38;101207.41;;;10.41;61.45
58761;BME280;44529;47.464;19.014;2023-02-16T14:23:41;101213.78;;;10.26;62.10
58761;BME280;44529;47.464;19.014;2023-02-16T14:26:56;101211.88;;;10.21;61.80
58761;BME280;44529;47.464;19.014;2023-02-16T14:30:01;101214.31;;;9.94;62.87
58761;BME280;44529;47.464;19.014;2023-02-16T14:39:19;101209.47;;;9.91;63.81
58761;BME280;44529;47.464;19.014;2023-02-16T14:42:33;101202.47;;;9.85;64.18
58761;BME280;44529;47.464;19.014;2023-02-16T14:55:59;101205.69;;;10.21;63.97
58761;BME280;44529;47.464;19.014;2023-02-16T14:59:30;101200.34;;;10.11;63.85
58761;BME280;44529;47.464;19.014;2023-02-16T15:02:39;101203.91;;;9.77;65.11
58761;BME280;44529;47.464;19.014;2023-02-16T15:05:42;101205.56;;;9.73;65.76
58761;BME280;44529;47.464;19.014;2023-02-16T15:08:54;101204.09;;;9.52;67.37
58761;BME280;44529;47.464;19.014;2023-02-16T15:12:05;101206.59;;;9.38;68.13
58761;BME280;44529;47.464;19.014;2023-02-16T15:15:42;101206.63;;;9.33;68.70
58761;BME280;44529;47.464;19.014;2023-02-16T15:18:50;101208.53;;;9.27;69.03
58761;BME280;44529;47.464;19.014;2023-02-16T15:28:38;101211.34;;;9.12;70.33
58761;BME280;44529;47.464;19.014;2023-02-16T15:31:40;101193.66;;;8.90;71.40
58761;BME280;44529;47.464;19.014;2023-02-16T15:34:43;101196.63;;;8.89;71.48
58761;BME280;44529;47.464;19.014;2023-02-16T15:37:46;101192.34;;;8.78;72.04
58761;BME280;44529;47.464;19.014;2023-02-16T15:40:53;101200.72;;;8.76;72.29
58761;BME280;44529;47.464;19.014;2023-02-16T15:43:57;101199.37;;;8.74;72.38
58761;BME280;44529;47.464;19.014;2023-02-16T15:47:43;101209.38;;;8.63;73.11
58761;BME280;44529;47.464;19.014;2023-02-16T15:50:38;101197.56;;;8.49;73.86
58761;BME280;44529;47.464;19.014;2023-02-16T15:56:47;101197.03;;;8.41;74.91
58761;BME280;44529;47.464;19.014;2023-02-16T15:59:53;101198.38;;;8.29;74.88
58761;BME280;44529;47.464;19.014;2023-02-16T16:02:59;101193.56;;;8.15;75.59
58761;BME280;44529;47.464;19.014;2023-02-16T16:06:03;101201.91;;;8.09;76.08
58761;BME280;44529;47.464;19.014;2023-02-16T16:09:25;101201.66;;;8.00;76.32
58761;BME280;44529;47.464;19.014;2023-02-16T16:12:29;101201.38;;;7.97;76.49
58761;BME280;44529;47.464;19.014;2023-02-16T16:15:43;101194.38;;;7.85;76.84
58761;BME280;44529;47.464;19.014;2023-02-16T16:18:47;101200.03;;;7.89;76.82
58761;BME280;44529;47.464;19.014;2023-02-16T16:21:53;101196.03;;;7.86;76.72
58761;BME280;44529;47.464;19.014;2023-02-16T16:24:55;101196.28;;;7.80;77.31
58761;BME280;44529;47.464;19.014;2023-02-16T16:27:58;101191.41;;;7.72;77.31
58761;BME280;44529;47.464;19.014;2023-02-16T16:34:32;101196.53;;;7.53;77.94
58761;BME280;44529;47.464;19.014;2023-02-16T16:37:35;101195.44;;;7.39;78.37
58761;BME280;44529;47.464;19.014;2023-02-16T16:40:38;101203.50;;;7.28;78.86
58761;BME280;44529;47.464;19.014;2023-02-16T16:43:52;101207.25;;;7.22;79.16
58761;BME280;44529;47.464;19.014;2023-02-16T16:46:55;101214.19;;;7.13;79.35
58761;BME280;44529;47.464;19.014;2023-02-16T16:56:44;101219.00;;;7.06;80.02
58761;BME280;44529;47.464;19.014;2023-02-16T16:59:46;101219.00;;;7.01;80.32
58761;BME280;44529;47.464;19.014;2023-02-16T17:02:48;101219.53;;;6.98;80.36
58761;BME280;44529;47.464;19.014;2023-02-16T17:05:51;101214.69;;;7.00;80.11
58761;BME280;44529;47.464;19.014;2023-02-16T17:08:53;101207.19;;;7.02;80.06
58761;BME280;44529;47.464;19.014;2023-02-16T17:11:57;101206.34;;;6.96;80.29
58761;BME280;44529;47.464;19.014;2023-02-16T17:15:00;101209.03;;;6.91;80.77
58761;BME280;44529;47.464;19.014;2023-02-16T17:18:03;101209.81;;;6.87;81.13
58761;BME280;44529;47.464;19.014;2023-02-16T17:21:06;101215.75;;;6.94;80.86
58761;BME280;44529;47.464;19.014;2023-02-16T17:24:08;101210.09;;;6.90;81.01
58761;BME280;44529;47.464;19.014;2023-02-16T17:27:12;101210.34;;;6.84;81.17
58761;BME280;44529;47.464;19.014;2023-02-16T17:30:14;101211.41;;;6.88;80.57
58761;BME280;44529;47.464;19.014;2023-02-16T17:33:17;101208.25;;;6.96;79.88
58761;BME280;44529;47.464;19.014;2023-02-16T17:36:20;101204.72;;;6.90;79.10
58761;BME280;44529;47.464;19.014;2023-02-16T17:39:23;101202.50;;;6.82;79.15
58761;BME280;44529;47.464;19.014;2023-02-16T17:42:26;101205.22;;;6.77;79.19
58761;BME280;44529;47.464;19.014;2023-02-16T17:45:29;101198.44;;;6.69;79.15
58761;BME280;44529;47.464;19.014;2023-02-16T17:48:31;101193.34;;;6.73;79.11
58761;BME280;44529;47.464;19.014;2023-02-16T17:51:34;101196.03;;;6.73;78.86
58761;BME280;44529;47.464;19.014;2023-02-16T17:54:37;101196.88;;;6.78;78.31
58761;BME280;44529;47.464;19.014;2023-02-16T17:57:40;101200.00;;;6.60;78.91
58761;BME280;44529;47.464;19.014;2023-02-16T18:00:43;101200.22;;;6.48;79.72
58761;BME280;44529;47.464;19.014;2023-02-16T18:03:46;101194.28;;;6.46;80.00
58761;BME280;44529;47.464;19.014;2023-02-16T18:06:48;101199.94;;;6.50;79.92
58761;BME280;44529;47.464;19.014;2023-02-16T18:09:52;101200.78;;;6.50;80.13
58761;BME280;44529;47.464;19.014;2023-02-16T18:12:55;101199.69;;;6.51;80.23
58761;BME280;44529;47.464;19.014;2023-02-16T18:15:58;101205.28;;;6.40;81.01
58761;BME280;44529;47.464;19.014;2023-02-16T18:19:02;101201.44;;;6.31;81.34
58761;BME280;44529;47.464;19.014;2023-02-16T18:22:05;101207.56;;;6.21;81.95
58761;BME280;44529;47.464;19.014;2023-02-16T18:25:07;101205.66;;;6.16;81.97